Upper Allen, Pennsylvania
Current Conditions -  °F | °C
As of 4:56 PM on Tuesday 25 Nov 2014 (Local Time) from KCXY Reporting Station
Clear Clear  
Wind Chill: 50°   Ceiling: Unl
Heat Index: 50°   Visibility: 10mi
Dew Point: 28°   Wind: 5mph
Humidity: 43%   Direction: 280°W
Pressure: 30.04"   Gusts: NA
Location:  40.208°N, 77.0098°W
Report Text: KCXY 252156Z 28004KT 10SM CLR 10/M02 A3004 RMK AO2 SLP175 T01001022
Loading
Personal Weather Stations






























Interactive Weather Map New forecast layout! Learn more

10-Day Weather Forecast

Advertisements
Track Severe Weather on mobile